EZY212 GCTS-EGCC
Flight info
| Callsign | EZY212 |
|---|---|
| Flight time | 4h 21m |
| Altitude | 38000 |
| Route | BIMBO DCT DEGUN DCT MANOX/M077F380 T13 OMOKO DCT GUNSO/N0446F380 DCT BIBLA DCT CML DCT KOMER DCT LUSAT DCT BOFUM Q37 MALUD |
| Aircraft | A20N/M-SDE2E3FGHIRWXY/LB1 |
Departure
| Time | 2026-04-30 15:07 |
|---|---|
| Airport | Tenerife Sur Airport (GCTS) |
Arrival
| Time | 2026-04-30 19:28 |
|---|---|
| Airport | Manchester Airport (EGCC) |
| Time | Latitude | Longitude | Altitude | Speed | Heading |
|---|---|---|---|---|---|
| 2026-04-30 14:57 | 28.04542 | -16.57949 | 217 ft | 0 kts | 255° |
| 2026-04-30 15:01 | 28.04531 | -16.57982 | 224 ft | 5 kts | 248° |
| 2026-04-30 15:01 | 28.04515 | -16.58027 | 219 ft | 7 kts | 249° |
| 2026-04-30 15:01 | 28.04466 | -16.58170 | 218 ft | 12 kts | 247° |
| 2026-04-30 15:02 | 28.04433 | -16.58264 | 221 ft | 14 kts | 249° |
| 2026-04-30 15:02 | 28.04397 | -16.58384 | 212 ft | 18 kts | 251° |
| 2026-04-30 15:03 | 28.04265 | -16.58557 | 210 ft | 6 kts | 163° |
| 2026-04-30 15:03 | 28.04174 | -16.58595 | 214 ft | 11 kts | 249° |
| 2026-04-30 15:04 | 28.04109 | -16.58779 | 209 ft | 12 kts | 248° |
| 2026-04-30 15:04 | 28.04019 | -16.58994 | 198 ft | 8 kts | 205° |
| 2026-04-30 15:05 | 28.03913 | -16.58876 | 203 ft | 8 kts | 114° |
| 2026-04-30 15:06 | 28.03928 | -16.58737 | 200 ft | 11 kts | 68° |
| 2026-04-30 15:06 | 28.04268 | -16.57766 | 200 ft | 127 kts | 68° |
| 2026-04-30 15:07 | 28.05039 | -16.55491 | 744 ft | 168 kts | 71° |
| 2026-04-30 15:07 | 28.05995 | -16.52709 | 1445 ft | 211 kts | 69° |
| 2026-04-30 15:08 | 28.07322 | -16.49254 | 2083 ft | 268 kts | 69° |
| 2026-04-30 15:08 | 28.09263 | -16.43364 | 4895 ft | 271 kts | 70° |
| 2026-04-30 15:09 | 28.10564 | -16.39265 | 6479 ft | 283 kts | 70° |
| 2026-04-30 15:09 | 28.11928 | -16.35019 | 8109 ft | 288 kts | 70° |
| 2026-04-30 15:10 | 28.13307 | -16.30750 | 9845 ft | 290 kts | 70° |
| 2026-04-30 15:11 | 28.16458 | -16.20979 | 11202 ft | 363 kts | 70° |
| 2026-04-30 15:11 | 28.18208 | -16.15538 | 12544 ft | 372 kts | 69° |
| 2026-04-30 15:12 | 28.21043 | -16.07171 | 14399 ft | 384 kts | 57° |
| 2026-04-30 15:13 | 28.24974 | -16.03260 | 15407 ft | 378 kts | 18° |
| 2026-04-30 15:14 | 28.35095 | -16.03888 | 17411 ft | 372 kts | 345° |
| 2026-04-30 15:14 | 28.42865 | -16.05213 | 18899 ft | 381 kts | 347° |
| 2026-04-30 15:16 | 28.56235 | -16.07105 | 21282 ft | 394 kts | 347° |
| 2026-04-30 15:17 | 28.67248 | -16.08667 | 23353 ft | 403 kts | 347° |
| 2026-04-30 15:18 | 28.81265 | -16.10663 | 25669 ft | 408 kts | 346° |
| 2026-04-30 15:19 | 28.89701 | -16.11865 | 27079 ft | 408 kts | 346° |
| 2026-04-30 17:39 | 46.26171 | -12.97382 | 38028 ft | 479 kts | 11° |
| 2026-04-30 17:42 | 46.58487 | -12.85702 | 38010 ft | 479 kts | 11° |
| 2026-04-30 17:43 | 46.74667 | -12.79800 | 38011 ft | 479 kts | 11° |
| 2026-04-30 17:44 | 46.94059 | -12.72678 | 38005 ft | 479 kts | 11° |
| 2026-04-30 17:47 | 47.23075 | -12.61924 | 37984 ft | 477 kts | 12° |
| 2026-04-30 17:48 | 47.45589 | -12.53495 | 37969 ft | 477 kts | 12° |
| 2026-04-30 17:50 | 47.71289 | -12.43781 | 37982 ft | 478 kts | 12° |
| 2026-04-30 17:52 | 47.90604 | -12.36415 | 37994 ft | 477 kts | 13° |
| 2026-04-30 17:54 | 48.19579 | -12.25256 | 37980 ft | 478 kts | 13° |
| 2026-04-30 17:56 | 48.45328 | -12.15230 | 37972 ft | 478 kts | 14° |
| 2026-04-30 17:58 | 48.64679 | -12.07625 | 37979 ft | 481 kts | 14° |
| 2026-04-30 18:00 | 48.89525 | -11.93880 | 37977 ft | 479 kts | 37° |
| 2026-04-30 18:01 | 49.03145 | -11.79171 | 37982 ft | 482 kts | 36° |
| 2026-04-30 18:02 | 49.18538 | -11.59641 | 37978 ft | 478 kts | 41° |
| 2026-04-30 18:04 | 49.33771 | -11.39734 | 37982 ft | 481 kts | 42° |
| 2026-04-30 18:06 | 49.54042 | -11.12967 | 37987 ft | 481 kts | 43° |
| 2026-04-30 18:08 | 49.71720 | -10.89375 | 37990 ft | 477 kts | 43° |
| 2026-04-30 18:10 | 49.91835 | -10.62240 | 37987 ft | 481 kts | 44° |
| 2026-04-30 18:11 | 50.08497 | -10.39526 | 37991 ft | 478 kts | 44° |
| 2026-04-30 18:13 | 50.20977 | -10.22369 | 37992 ft | 477 kts | 45° |
| 2026-04-30 18:14 | 50.33305 | -10.05301 | 37989 ft | 474 kts | 45° |
| 2026-04-30 18:15 | 50.48062 | -9.84705 | 37990 ft | 472 kts | 45° |
| 2026-04-30 18:16 | 50.57833 | -9.70967 | 37993 ft | 471 kts | 46° |
| 2026-04-30 18:17 | 50.62712 | -9.64077 | 37992 ft | 471 kts | 46° |
| 2026-04-30 18:18 | 50.70022 | -9.53717 | 37996 ft | 471 kts | 46° |
| 2026-04-30 18:18 | 50.74862 | -9.46833 | 37995 ft | 471 kts | 46° |
| 2026-04-30 18:19 | 50.79725 | -9.39895 | 37972 ft | 471 kts | 46° |
| 2026-04-30 18:19 | 50.84582 | -9.32947 | 37998 ft | 471 kts | 46° |
| 2026-04-30 18:20 | 50.89435 | -9.25983 | 38001 ft | 471 kts | 46° |
| 2026-04-30 18:20 | 50.94288 | -9.18998 | 38008 ft | 471 kts | 46° |
| 2026-04-30 18:21 | 50.99137 | -9.12001 | 37995 ft | 470 kts | 46° |
| 2026-04-30 18:21 | 51.03951 | -9.05034 | 37997 ft | 468 kts | 46° |
| 2026-04-30 18:22 | 51.08765 | -8.98045 | 37998 ft | 469 kts | 46° |
| 2026-04-30 18:22 | 51.16331 | -8.88122 | 38002 ft | 474 kts | 37° |
| 2026-04-30 18:23 | 51.21845 | -8.82352 | 38004 ft | 474 kts | 37° |
| 2026-04-30 18:23 | 51.27350 | -8.76553 | 38013 ft | 474 kts | 37° |
| 2026-04-30 18:24 | 51.35606 | -8.67825 | 38016 ft | 474 kts | 37° |
| 2026-04-30 18:25 | 51.41065 | -8.62032 | 38010 ft | 473 kts | 37° |
| 2026-04-30 18:25 | 51.49294 | -8.53272 | 38016 ft | 474 kts | 37° |
| 2026-04-30 18:26 | 51.57515 | -8.44481 | 38035 ft | 474 kts | 37° |
| 2026-04-30 18:27 | 51.65746 | -8.35639 | 38031 ft | 474 kts | 37° |
| 2026-04-30 18:28 | 51.73966 | -8.26771 | 38039 ft | 474 kts | 37° |
| 2026-04-30 18:28 | 51.82162 | -8.17884 | 38050 ft | 473 kts | 37° |
| 2026-04-30 18:29 | 51.93084 | -8.05986 | 38054 ft | 473 kts | 37° |
| 2026-04-30 18:30 | 52.03994 | -7.94029 | 38060 ft | 473 kts | 37° |
| 2026-04-30 18:31 | 52.12154 | -7.85038 | 38065 ft | 471 kts | 37° |
| 2026-04-30 18:32 | 52.20291 | -7.76032 | 38059 ft | 471 kts | 37° |
| 2026-04-30 18:33 | 52.28414 | -7.67003 | 38063 ft | 471 kts | 37° |
| 2026-04-30 18:33 | 52.36487 | -7.57988 | 38060 ft | 470 kts | 37° |
| 2026-04-30 18:34 | 52.44530 | -7.48807 | 38056 ft | 468 kts | 41° |
| 2026-04-30 18:35 | 52.49289 | -7.41619 | 38064 ft | 464 kts | 47° |
| 2026-04-30 18:35 | 52.53890 | -7.34196 | 38072 ft | 464 kts | 47° |
| 2026-04-30 18:36 | 52.60771 | -7.23002 | 38061 ft | 463 kts | 47° |
| 2026-04-30 18:37 | 52.67648 | -7.11824 | 38065 ft | 463 kts | 47° |
| 2026-04-30 18:37 | 52.72219 | -7.04342 | 38066 ft | 463 kts | 47° |
| 2026-04-30 18:38 | 52.76762 | -6.96870 | 38070 ft | 460 kts | 47° |
| 2026-04-30 18:38 | 52.81292 | -6.89393 | 38070 ft | 461 kts | 47° |
| 2026-04-30 18:39 | 52.85771 | -6.81812 | 38073 ft | 460 kts | 51° |
| 2026-04-30 18:39 | 52.89990 | -6.73863 | 38071 ft | 460 kts | 51° |
| 2026-04-30 18:40 | 52.94230 | -6.65928 | 38080 ft | 460 kts | 51° |
| 2026-04-30 18:40 | 52.98462 | -6.57963 | 38073 ft | 459 kts | 51° |
| 2026-04-30 18:41 | 53.02646 | -6.50051 | 38097 ft | 460 kts | 51° |
| 2026-04-30 18:41 | 53.06859 | -6.42059 | 38104 ft | 460 kts | 51° |
| 2026-04-30 18:42 | 53.11070 | -6.34044 | 38099 ft | 460 kts | 51° |
| 2026-04-30 18:42 | 53.17386 | -6.21974 | 38105 ft | 461 kts | 52° |
| 2026-04-30 18:45 | 53.40154 | -5.77123 | 37797 ft | 461 kts | 53° |
| 2026-04-30 18:45 | 53.42223 | -5.73009 | 37285 ft | 461 kts | 53° |
| 2026-04-30 18:46 | 53.44284 | -5.68905 | 36755 ft | 460 kts | 53° |
| 2026-04-30 18:46 | 53.46343 | -5.64801 | 36232 ft | 459 kts | 53° |
| 2026-04-30 18:46 | 53.48394 | -5.60702 | 35733 ft | 459 kts | 53° |
| 2026-04-30 18:46 | 53.50347 | -5.56480 | 35238 ft | 456 kts | 61° |
| 2026-04-30 18:47 | 53.51851 | -5.51815 | 34754 ft | 452 kts | 71° |
| 2026-04-30 18:47 | 53.52861 | -5.46853 | 34279 ft | 447 kts | 81° |
| 2026-04-30 18:47 | 53.53371 | -5.41736 | 33760 ft | 441 kts | 90° |
| 2026-04-30 18:47 | 53.53391 | -5.36632 | 33219 ft | 437 kts | 97° |
| 2026-04-30 18:48 | 53.53255 | -5.31512 | 32681 ft | 439 kts | 97° |
| 2026-04-30 18:48 | 53.53132 | -5.26402 | 32163 ft | 440 kts | 97° |
| 2026-04-30 18:48 | 53.53008 | -5.21275 | 31654 ft | 440 kts | 97° |
| 2026-04-30 18:48 | 53.52879 | -5.16127 | 31108 ft | 442 kts | 97° |
| 2026-04-30 18:49 | 53.52736 | -5.10980 | 30621 ft | 442 kts | 97° |
| 2026-04-30 18:49 | 53.52578 | -5.05908 | 30135 ft | 439 kts | 97° |
| 2026-04-30 18:49 | 53.52415 | -5.00830 | 29572 ft | 435 kts | 97° |
| 2026-04-30 18:49 | 53.52252 | -4.95789 | 29016 ft | 430 kts | 97° |
| 2026-04-30 18:50 | 53.52089 | -4.90811 | 28475 ft | 426 kts | 97° |
| 2026-04-30 18:50 | 53.51926 | -4.85880 | 27941 ft | 422 kts | 98° |
| 2026-04-30 18:50 | 53.51763 | -4.80985 | 27418 ft | 420 kts | 98° |
| 2026-04-30 18:50 | 53.51601 | -4.76109 | 26903 ft | 417 kts | 98° |
| 2026-04-30 18:51 | 53.51438 | -4.71266 | 26392 ft | 413 kts | 98° |
| 2026-04-30 18:51 | 53.51275 | -4.66466 | 25893 ft | 410 kts | 98° |
| 2026-04-30 18:51 | 53.51111 | -4.61705 | 25388 ft | 407 kts | 98° |
| 2026-04-30 18:51 | 53.50947 | -4.56969 | 24908 ft | 404 kts | 98° |
| 2026-04-30 18:52 | 53.50781 | -4.52277 | 24445 ft | 401 kts | 98° |
| 2026-04-30 18:52 | 53.50616 | -4.47642 | 23983 ft | 398 kts | 98° |
| 2026-04-30 18:52 | 53.50451 | -4.43043 | 23496 ft | 395 kts | 98° |
| 2026-04-30 18:52 | 53.50501 | -4.38421 | 22944 ft | 395 kts | 93° |
| 2026-04-30 18:53 | 53.50619 | -4.33828 | 22427 ft | 391 kts | 93° |
| 2026-04-30 18:53 | 53.50737 | -4.29283 | 21904 ft | 388 kts | 93° |
| 2026-04-30 18:53 | 53.50853 | -4.24754 | 21386 ft | 385 kts | 94° |
| 2026-04-30 18:53 | 53.50967 | -4.20291 | 20883 ft | 381 kts | 94° |
| 2026-04-30 18:54 | 53.51078 | -4.15853 | 20374 ft | 378 kts | 94° |
| 2026-04-30 18:54 | 53.51187 | -4.11473 | 19877 ft | 375 kts | 94° |
| 2026-04-30 18:54 | 53.51292 | -4.07175 | 19403 ft | 371 kts | 94° |
| 2026-04-30 18:54 | 53.51396 | -4.02799 | 18924 ft | 370 kts | 94° |
| 2026-04-30 18:55 | 53.51495 | -3.98574 | 18472 ft | 367 kts | 94° |
| 2026-04-30 18:55 | 53.51692 | -3.90069 | 17426 ft | 361 kts | 94° |
| 2026-04-30 18:55 | 53.51786 | -3.85873 | 16909 ft | 358 kts | 94° |
| 2026-04-30 18:56 | 53.51969 | -3.77565 | 15892 ft | 353 kts | 94° |
| 2026-04-30 18:56 | 53.52057 | -3.73454 | 15405 ft | 351 kts | 94° |
| 2026-04-30 18:56 | 53.52143 | -3.69372 | 14931 ft | 348 kts | 94° |
| 2026-04-30 18:57 | 53.52310 | -3.61285 | 13962 ft | 344 kts | 94° |
| 2026-04-30 18:57 | 53.52387 | -3.57298 | 13441 ft | 341 kts | 93° |
| 2026-04-30 18:57 | 53.52462 | -3.53305 | 12955 ft | 342 kts | 93° |
| 2026-04-30 18:58 | 53.52612 | -3.45376 | 11958 ft | 337 kts | 92° |
| 2026-04-30 18:58 | 53.52685 | -3.41452 | 11461 ft | 334 kts | 92° |
| 2026-04-30 18:58 | 53.52755 | -3.37544 | 10972 ft | 335 kts | 91° |
| 2026-04-30 18:59 | 53.52870 | -3.31084 | 10176 ft | 330 kts | 91° |
| 2026-04-30 19:00 | 53.53070 | -3.19816 | 8883 ft | 302 kts | 91° |
| 2026-04-30 19:00 | 53.53131 | -3.16384 | 8622 ft | 286 kts | 91° |
| 2026-04-30 19:00 | 53.53236 | -3.09857 | 8112 ft | 282 kts | 92° |
| 2026-04-30 19:01 | 53.53342 | -3.03341 | 7626 ft | 276 kts | 92° |
| 2026-04-30 19:01 | 53.53100 | -3.00227 | 7375 ft | 263 kts | 115° |
| 2026-04-30 19:02 | 53.50884 | -2.95957 | 7151 ft | 240 kts | 141° |
| 2026-04-30 19:02 | 53.48375 | -2.92306 | 7156 ft | 243 kts | 141° |
| 2026-04-30 19:03 | 53.45848 | -2.88618 | 6875 ft | 239 kts | 141° |
| 2026-04-30 19:03 | 53.43285 | -2.84888 | 5889 ft | 248 kts | 141° |
| 2026-04-30 19:04 | 53.40715 | -2.81149 | 5019 ft | 240 kts | 142° |
| 2026-04-30 19:04 | 53.38259 | -2.77591 | 4261 ft | 228 kts | 141° |
| 2026-04-30 19:05 | 53.35914 | -2.74202 | 3507 ft | 217 kts | 140° |
| 2026-04-30 19:05 | 53.33670 | -2.70970 | 3092 ft | 214 kts | 139° |
| 2026-04-30 19:06 | 53.31508 | -2.67854 | 2991 ft | 204 kts | 139° |
| 2026-04-30 19:06 | 53.30439 | -2.66313 | 2987 ft | 203 kts | 139° |
| 2026-04-30 19:06 | 53.28300 | -2.63235 | 2995 ft | 203 kts | 139° |
| 2026-04-30 19:07 | 53.26373 | -2.60463 | 2981 ft | 159 kts | 139° |
| 2026-04-30 19:07 | 53.25522 | -2.59237 | 2989 ft | 163 kts | 139° |
| 2026-04-30 19:08 | 53.23887 | -2.56889 | 2980 ft | 140 kts | 139° |
| 2026-04-30 19:08 | 53.22584 | -2.54534 | 2988 ft | 145 kts | 111° |
| 2026-04-30 19:08 | 53.22731 | -2.52796 | 2984 ft | 161 kts | 71° |
| 2026-04-30 19:09 | 53.24137 | -2.49741 | 2978 ft | 169 kts | 58° |
| 2026-04-30 19:09 | 53.24867 | -2.48244 | 2804 ft | 163 kts | 60° |
| 2026-04-30 19:09 | 53.25567 | -2.46804 | 2595 ft | 161 kts | 60° |
| 2026-04-30 19:10 | 53.26930 | -2.44003 | 2168 ft | 145 kts | 60° |
| 2026-04-30 19:10 | 53.28188 | -2.41402 | 1798 ft | 144 kts | 61° |
| 2026-04-30 19:11 | 53.28823 | -2.40085 | 1595 ft | 146 kts | 59° |
| 2026-04-30 19:11 | 53.30102 | -2.37449 | 1206 ft | 146 kts | 57° |
| 2026-04-30 19:11 | 53.30735 | -2.36154 | 950 ft | 142 kts | 56° |
| 2026-04-30 19:12 | 53.31350 | -2.34853 | 741 ft | 141 kts | 55° |
| 2026-04-30 19:12 | 53.32002 | -2.33502 | 776 ft | 161 kts | 56° |
| 2026-04-30 19:12 | 53.32734 | -2.32004 | 1436 ft | 173 kts | 58° |
| 2026-04-30 19:13 | 53.33589 | -2.28244 | 2507 ft | 192 kts | 112° |
| 2026-04-30 19:13 | 53.31556 | -2.25671 | 3091 ft | 202 kts | 177° |
| 2026-04-30 19:13 | 53.30123 | -2.25783 | 3337 ft | 205 kts | 180° |
| 2026-04-30 19:14 | 53.28734 | -2.25910 | 3429 ft | 198 kts | 180° |
| 2026-04-30 19:14 | 53.27359 | -2.26036 | 3496 ft | 200 kts | 180° |
| 2026-04-30 19:14 | 53.25960 | -2.26166 | 3496 ft | 201 kts | 180° |
| 2026-04-30 19:14 | 53.24578 | -2.26477 | 3495 ft | 204 kts | 198° |
| 2026-04-30 19:15 | 53.23457 | -2.27982 | 3525 ft | 218 kts | 232° |
| 2026-04-30 19:15 | 53.22154 | -2.32659 | 3890 ft | 219 kts | 240° |
| 2026-04-30 19:15 | 53.21530 | -2.34985 | 3986 ft | 221 kts | 240° |
| 2026-04-30 19:16 | 53.20893 | -2.37328 | 3998 ft | 222 kts | 240° |
| 2026-04-30 19:16 | 53.20253 | -2.39663 | 3996 ft | 221 kts | 240° |
| 2026-04-30 19:16 | 53.19025 | -2.44345 | 3990 ft | 225 kts | 252° |
| 2026-04-30 19:17 | 53.19097 | -2.46985 | 3994 ft | 238 kts | 287° |
| 2026-04-30 19:17 | 53.21583 | -2.50433 | 3995 ft | 246 kts | 353° |
| 2026-04-30 19:17 | 53.23286 | -2.50622 | 3988 ft | 245 kts | 0° |
| 2026-04-30 19:18 | 53.25973 | -2.49608 | 3997 ft | 237 kts | 45° |
| 2026-04-30 19:18 | 53.27025 | -2.46666 | 3996 ft | 220 kts | 89° |
| 2026-04-30 19:18 | 53.26783 | -2.44221 | 3998 ft | 209 kts | 124° |
| 2026-04-30 19:19 | 53.25787 | -2.42555 | 4001 ft | 204 kts | 149° |
| 2026-04-30 19:19 | 53.24583 | -2.41294 | 3997 ft | 203 kts | 150° |
| 2026-04-30 19:19 | 53.21997 | -2.39724 | 3999 ft | 204 kts | 188° |
| 2026-04-30 19:20 | 53.20724 | -2.40801 | 3999 ft | 214 kts | 221° |
| 2026-04-30 19:20 | 53.19928 | -2.42941 | 3998 ft | 222 kts | 239° |
| 2026-04-30 19:20 | 53.18650 | -2.47582 | 3994 ft | 221 kts | 240° |
| 2026-04-30 19:21 | 53.18012 | -2.49912 | 3993 ft | 221 kts | 240° |
| 2026-04-30 19:21 | 53.16751 | -2.54578 | 3991 ft | 222 kts | 243° |
| 2026-04-30 19:22 | 53.17241 | -2.59673 | 3974 ft | 245 kts | 310° |
| 2026-04-30 19:22 | 53.21409 | -2.59099 | 3544 ft | 214 kts | 59° |
| 2026-04-30 19:23 | 53.23219 | -2.52800 | 3176 ft | 191 kts | 65° |
| 2026-04-30 19:24 | 53.24721 | -2.49493 | 3041 ft | 160 kts | 59° |
| 2026-04-30 19:24 | 53.25374 | -2.48149 | 2961 ft | 147 kts | 61° |
| 2026-04-30 19:24 | 53.26690 | -2.45425 | 2716 ft | 150 kts | 61° |
| 2026-04-30 19:25 | 53.28609 | -2.41465 | 2169 ft | 144 kts | 60° |
| 2026-04-30 19:26 | 53.29858 | -2.38885 | 1785 ft | 145 kts | 60° |
| 2026-04-30 19:26 | 53.31108 | -2.36306 | 1363 ft | 145 kts | 60° |
| 2026-04-30 19:26 | 53.31751 | -2.35032 | 1161 ft | 144 kts | 59° |
| 2026-04-30 19:27 | 53.32973 | -2.32449 | 788 ft | 138 kts | 55° |
| 2026-04-30 19:27 | 53.34199 | -2.29929 | 411 ft | 141 kts | 53° |
| 2026-04-30 19:28 | 53.34819 | -2.28653 | 252 ft | 137 kts | 55° |
| 2026-04-30 19:28 | 53.35521 | -2.27194 | 239 ft | 19 kts | 49° |
| 2026-04-30 19:29 | 53.35642 | -2.27107 | 236 ft | 13 kts | 322° |
| 2026-04-30 19:29 | 53.35672 | -2.27148 | 237 ft | 3 kts | 321° |
| 2026-04-30 19:30 | 53.35757 | -2.27260 | 233 ft | 6 kts | 322° |
| 2026-04-30 19:30 | 53.35744 | -2.27417 | 233 ft | 9 kts | 231° |
| 2026-04-30 19:31 | 53.35679 | -2.27556 | 232 ft | 7 kts | 235° |
| 2026-04-30 19:31 | 53.35689 | -2.27611 | 235 ft | 6 kts | 329° |
| 2026-04-30 19:31 | 53.35822 | -2.27654 | 234 ft | 10 kts | 8° |
| 2026-04-30 19:32 | 53.35890 | -2.27640 | 233 ft | 9 kts | 4° |
| 2026-04-30 19:32 | 53.35965 | -2.27631 | 234 ft | 12 kts | 6° |
| 2026-04-30 19:32 | 53.36019 | -2.27620 | 232 ft | 6 kts | 7° |
| 2026-04-30 19:32 | 53.36048 | -2.27614 | 232 ft | 3 kts | 4° |
| 2026-04-30 19:33 | 53.36065 | -2.27627 | 234 ft | 3 kts | 319° |
| 2026-04-30 19:33 | 53.36078 | -2.27670 | 232 ft | 5 kts | 292° |
| 2026-04-30 19:33 | 53.36094 | -2.27717 | 234 ft | 5 kts | 321° |
| 2026-04-30 19:33 | 53.36143 | -2.27707 | 234 ft | 7 kts | 14° |
| 2026-04-30 19:34 | 53.36165 | -2.27697 | 232 ft | 0 kts | 14° |